Time;durP1;ratioP1;P1;durP2;ratioP2;P2;SDS_P1;SDS_P2;PMS_P1;PMS_P2;Temp;Humidity;BMP_temperature;BMP_pressure;BME280_temperature;BME280_humidity;BME280_pressure;Samples;Min_cycle;Max_cycle;Signal;HPM_P1;HPM_P2
2022/09/19 00:01:27;;;;;;;;;;;11.80;99.90;;;;;;5087197;28;19923;-63
2022/09/19 00:03:59;;;;;;;;;;;11.60;99.90;;;;;;5105443;28;19923;-64
2022/09/19 00:06:27;;;;;;;;;;;11.80;99.90;;;;;;5097140;28;19924;-60
2022/09/19 00:08:55;;;;;;;;;;;11.90;99.90;;;;;;5085583;28;19924;-62
2022/09/19 00:11:24;;;;;;;;;;;11.90;99.90;;;;;;5096500;28;19924;-61
2022/09/19 00:13:53;;;;;;;;;;;11.90;99.90;;;;;;5111646;27;19924;-60
2022/09/19 00:16:26;;;;;;;;;;;12.00;99.90;;;;;;5076188;28;19935;-58
2022/09/19 00:18:55;;;;;;;;;;;12.00;99.90;;;;;;5104868;28;19923;-61
2022/09/19 00:21:24;;;;;;;;;;;12.00;99.90;;;;;;5071293;28;19924;-62
2022/09/19 00:26:38;;;;;;;;;;;12.10;99.90;;;;;;5097665;28;19924;-64
2022/09/19 00:29:07;;;;;;;;;;;12.10;99.90;;;;;;5084812;28;19943;-62
2022/09/19 00:31:35;;;;;;;;;;;12.20;99.90;;;;;;5069661;28;20287;-63
2022/09/19 00:34:06;;;;;;;;;;;12.20;99.90;;;;;;5084329;28;19927;-63
2022/09/19 00:36:34;;;;;;;;;;;12.20;99.90;;;;;;5087779;28;20306;-62
2022/09/19 00:39:02;;;;;;;;;;;12.20;99.90;;;;;;5092835;28;19946;-59
2022/09/19 00:41:30;;;;;;;;;;;12.20;99.90;;;;;;5102043;27;20281;-61
2022/09/19 00:44:02;;;;;;;;;;;12.20;99.90;;;;;;5111692;27;20032;-59
2022/09/19 00:46:32;;;;;;;;;;;12.20;99.90;;;;;;5094258;28;20409;-59
2022/09/19 00:49:05;;;;;;;;;;;12.20;99.90;;;;;;5085726;28;20264;-64
2022/09/19 00:51:35;;;;;;;;;;;12.20;99.90;;;;;;5105358;28;20288;-64
2022/09/19 00:54:11;;;;;;;;;;;12.20;99.90;;;;;;5104543;28;19928;-62
2022/09/19 00:56:42;;;;;;;;;;;12.20;99.90;;;;;;5098311;28;19931;-62
2022/09/19 00:59:10;;;;;;;;;;;12.20;99.90;;;;;;5086835;28;19924;-61
2022/09/19 01:01:38;;;;;;;;;;;12.20;99.90;;;;;;5070482;28;20398;-62
2022/09/19 01:04:35;;;;;;;;;;;12.20;99.90;;;;;;5095587;27;19927;-63
2022/09/19 01:07:08;;;;;;;;;;;12.20;99.90;;;;;;5086434;28;20294;-60
2022/09/19 01:09:54;;;;;;;;;;;12.20;99.90;;;;;;5093222;28;19924;-63
2022/09/19 01:12:25;;;;;;;;;;;12.20;99.90;;;;;;5101271;28;19934;-61
2022/09/19 01:15:04;;;;;;;;;;;12.20;99.90;;;;;;5104492;28;20753;-62
2022/09/19 01:17:45;;;;;;;;;;;12.20;99.90;;;;;;5103692;28;19953;-63
2022/09/19 01:20:22;;;;;;;;;;;12.20;99.90;;;;;;5080567;28;20550;-61
2022/09/19 01:23:03;;;;;;;;;;;12.20;99.90;;;;;;5103608;28;20290;-64
2022/09/19 01:25:49;;;;;;;;;;;12.20;99.90;;;;;;5067184;28;19935;-58
2022/09/19 01:28:37;;;;;;;;;;;12.20;99.90;;;;;;5090368;28;19924;-59
2022/09/19 01:31:16;;;;;;;;;;;12.20;99.90;;;;;;5086968;28;20382;-63
2022/09/19 01:33:47;;;;;;;;;;;12.20;99.90;;;;;;5068410;28;19931;-58
2022/09/19 01:36:16;;;;;;;;;;;12.10;99.90;;;;;;5090756;28;19923;-58
2022/09/19 01:38:45;;;;;;;;;;;12.10;99.90;;;;;;5089569;28;20298;-58
2022/09/19 01:41:14;;;;;;;;;;;12.10;99.90;;;;;;5088946;28;20287;-60
2022/09/19 01:43:42;;;;;;;;;;;12.10;99.90;;;;;;5097212;28;19931;-58
2022/09/19 01:46:15;;;;;;;;;;;12.10;99.90;;;;;;5072769;28;20324;-58
2022/09/19 01:48:49;;;;;;;;;;;12.10;99.90;;;;;;5083257;28;19927;-58
2022/09/19 01:51:17;;;;;;;;;;;12.00;99.90;;;;;;5090644;28;19939;-58
2022/09/19 01:54:09;;;;;;;;;;;12.00;99.90;;;;;;5107345;28;20313;-58
2022/09/19 01:56:55;;;;;;;;;;;11.80;99.90;;;;;;5090796;28;20343;-57
2022/09/19 01:59:58;;;;;;;;;;;12.00;99.90;;;;;;5086463;28;19930;-58
2022/09/19 02:02:35;;;;;;;;;;;12.00;99.90;;;;;;5022884;28;19952;-58
2022/09/19 02:05:09;;;;;;;;;;;12.00;99.90;;;;;;5071684;28;19924;-59
2022/09/19 02:07:50;;;;;;;;;;;12.00;99.90;;;;;;5090518;28;19935;-64
2022/09/19 02:10:21;;;;;;;;;;;12.00;99.90;;;;;;5088646;28;19946;-63
2022/09/19 02:12:52;;;;;;;;;;;12.00;99.90;;;;;;5088153;28;19924;-62
2022/09/19 02:15:46;;;;;;;;;;;12.00;99.90;;;;;;5083568;28;19931;-64
2022/09/19 02:18:24;;;;;;;;;;;12.00;99.90;;;;;;5089296;28;19952;-61
2022/09/19 02:20:55;;;;;;;;;;;11.90;99.90;;;;;;5106661;28;19931;-64
2022/09/19 02:23:25;;;;;;;;;;;12.00;99.90;;;;;;5088985;28;19928;-62
2022/09/19 02:25:53;;;;;;;;;;;11.90;99.90;;;;;;5091949;28;19924;-63
2022/09/19 02:28:25;;;;;;;;;;;11.90;99.90;;;;;;5092673;28;19930;-64
2022/09/19 02:30:55;;;;;;;;;;;11.90;99.90;;;;;;5060622;28;19935;-63
2022/09/19 02:33:23;;;;;;;;;;;11.80;99.90;;;;;;5086518;28;19934;-64
2022/09/19 02:35:50;;;;;;;;;;;11.90;99.90;;;;;;5095318;28;19923;-64
2022/09/19 02:38:22;;;;;;;;;;;11.80;99.90;;;;;;5114219;28;19923;-64
2022/09/19 02:40:56;;;;;;;;;;;11.80;99.90;;;;;;5095035;28;19924;-64
2022/09/19 02:43:30;;;;;;;;;;;11.80;99.90;;;;;;5093834;28;20361;-64
2022/09/19 02:46:02;;;;;;;;;;;11.80;99.90;;;;;;5094813;28;19923;-64
2022/09/19 02:48:33;;;;;;;;;;;11.80;99.90;;;;;;5075905;28;19931;-63
2022/09/19 02:51:03;;;;;;;;;;;11.80;99.90;;;;;;5088802;28;19924;-64
2022/09/19 02:53:40;;;;;;;;;;;11.80;99.90;;;;;;5093312;28;19924;-64
2022/09/19 02:56:15;;;;;;;;;;;11.80;99.90;;;;;;5077711;28;19928;-63
2022/09/19 02:58:47;;;;;;;;;;;11.80;99.90;;;;;;5094872;28;19943;-61
2022/09/19 03:01:19;;;;;;;;;;;11.80;99.90;;;;;;5077351;28;19931;-64
2022/09/19 03:06:45;;;;;;;;;;;11.80;99.90;;;;;;5093757;28;19924;-61
2022/09/19 03:09:14;;;;;;;;;;;11.80;99.90;;;;;;5093819;28;19924;-62
2022/09/19 03:11:46;;;;;;;;;;;11.80;99.90;;;;;;5119865;27;19923;-62
2022/09/19 03:14:14;;;;;;;;;;;11.80;99.90;;;;;;5104849;28;20267;-63
2022/09/19 03:16:47;;;;;;;;;;;11.80;99.90;;;;;;5096398;28;19923;-62
2022/09/19 03:19:16;;;;;;;;;;;11.80;99.90;;;;;;5093031;28;19924;-63
2022/09/19 03:21:45;;;;;;;;;;;11.80;99.90;;;;;;5090916;28;20389;-63
2022/09/19 03:24:13;;;;;;;;;;;11.70;99.90;;;;;;5092980;28;19928;-62
2022/09/19 03:26:40;;;;;;;;;;;11.80;99.90;;;;;;5092797;28;19928;-64
2022/09/19 03:29:08;;;;;;;;;;;11.70;99.90;;;;;;5092745;28;19924;-64
2022/09/19 03:31:53;;;;;;;;;;;11.70;99.90;;;;;;5090359;28;20309;-57
2022/09/19 03:34:22;;;;;;;;;;;11.40;99.90;;;;;;5073655;28;19940;-63
2022/09/19 03:36:51;;;;;;;;;;;11.70;99.90;;;;;;5055742;28;19925;-63
2022/09/19 03:39:23;;;;;;;;;;;11.70;99.90;;;;;;5072324;28;20387;-64
2022/09/19 03:41:52;;;;;;;;;;;11.60;99.90;;;;;;5094026;28;19924;-60
2022/09/19 03:44:20;;;;;;;;;;;11.70;99.90;;;;;;5093600;28;19943;-62
2022/09/19 03:46:48;;;;;;;;;;;11.70;99.90;;;;;;5092487;28;19924;-62
2022/09/19 03:49:16;;;;;;;;;;;11.70;99.90;;;;;;5092226;28;19925;-59
2022/09/19 03:51:46;;;;;;;;;;;11.70;99.90;;;;;;5091393;28;20299;-59
2022/09/19 03:54:15;;;;;;;;;;;11.70;99.90;;;;;;5091355;28;19928;-60
2022/09/19 03:56:43;;;;;;;;;;;11.70;99.90;;;;;;5093448;28;19931;-59
2022/09/19 03:59:12;;;;;;;;;;;11.70;99.90;;;;;;5075780;28;19924;-58
2022/09/19 04:01:42;;;;;;;;;;;11.70;99.90;;;;;;5074059;28;19925;-59
2022/09/19 04:04:10;;;;;;;;;;;11.70;99.90;;;;;;5092098;28;19931;-58
2022/09/19 04:06:43;;;;;;;;;;;11.70;99.90;;;;;;5086906;28;20291;-60
2022/09/19 04:09:11;;;;;;;;;;;11.70;99.90;;;;;;5071418;28;19931;-57
2022/09/19 04:11:41;;;;;;;;;;;11.70;99.90;;;;;;5096086;28;19930;-58
2022/09/19 04:14:09;;;;;;;;;;;11.80;99.90;;;;;;5090883;28;19931;-58
2022/09/19 04:16:36;;;;;;;;;;;11.80;99.90;;;;;;5092848;28;20288;-60
2022/09/19 04:19:10;;;;;;;;;;;11.80;99.90;;;;;;5092005;28;19935;-60
2022/09/19 04:22:01;;;;;;;;;;;11.80;99.90;;;;;;5091811;28;19931;-59
2022/09/19 04:24:38;;;;;;;;;;;11.80;99.90;;;;;;5091794;28;19935;-58
2022/09/19 04:27:38;;;;;;;;;;;11.80;99.90;;;;;;5069455;28;19931;-57
2022/09/19 04:30:06;;;;;;;;;;;11.80;99.90;;;;;;5091488;28;20379;-58
2022/09/19 04:32:34;;;;;;;;;;;11.80;99.90;;;;;;5091494;28;19924;-58
2022/09/19 04:35:02;;;;;;;;;;;11.80;99.90;;;;;;5092832;28;19924;-58
2022/09/19 04:37:29;;;;;;;;;;;11.80;99.90;;;;;;5091830;28;19932;-57
2022/09/19 04:40:09;;;;;;;;;;;11.70;99.90;;;;;;5091770;28;19925;-58
2022/09/19 04:42:36;;;;;;;;;;;11.80;99.90;;;;;;5104348;28;19923;-61
2022/09/19 04:45:07;;;;;;;;;;;11.80;99.90;;;;;;5111986;28;19930;-61
2022/09/19 04:47:43;;;;;;;;;;;11.80;99.90;;;;;;5096268;28;19928;-63
2022/09/19 04:50:11;;;;;;;;;;;11.80;99.90;;;;;;5067779;28;19924;-58
2022/09/19 04:52:39;;;;;;;;;;;11.70;99.90;;;;;;5068393;28;19929;-59
2022/09/19 04:55:09;;;;;;;;;;;11.80;99.90;;;;;;5067348;28;20311;-61
2022/09/19 04:57:36;;;;;;;;;;;11.70;99.90;;;;;;5078182;28;19924;-62
2022/09/19 05:00:10;;;;;;;;;;;11.70;99.90;;;;;;5108278;28;20507;-62
2022/09/19 05:02:41;;;;;;;;;;;11.70;99.90;;;;;;5088499;28;19935;-63
2022/09/19 05:05:08;;;;;;;;;;;11.70;99.90;;;;;;5081400;28;19974;-59
2022/09/19 05:07:37;;;;;;;;;;;11.70;99.90;;;;;;5074917;28;19924;-64
2022/09/19 05:10:08;;;;;;;;;;;11.60;99.90;;;;;;5104642;28;20492;-64
2022/09/19 05:12:37;;;;;;;;;;;11.60;99.90;;;;;;5107527;28;19924;-64
2022/09/19 05:15:05;;;;;;;;;;;11.60;99.90;;;;;;5108054;28;19924;-61
2022/09/19 05:17:33;;;;;;;;;;;11.50;99.90;;;;;;5097491;28;20524;-62
2022/09/19 05:20:00;;;;;;;;;;;11.50;99.90;;;;;;5064070;28;19931;-62
2022/09/19 05:22:30;;;;;;;;;;;11.40;99.90;;;;;;5066205;28;19995;-63
2022/09/19 05:25:03;;;;;;;;;;;11.40;99.90;;;;;;5087151;28;19938;-62
2022/09/19 05:27:31;;;;;;;;;;;11.40;99.90;;;;;;5070339;28;19932;-63
2022/09/19 05:29:59;;;;;;;;;;;11.30;99.90;;;;;;5087406;28;20371;-63
2022/09/19 05:32:33;;;;;;;;;;;11.30;99.90;;;;;;5087533;28;19924;-62
2022/09/19 05:35:09;;;;;;;;;;;11.30;99.90;;;;;;5067574;28;19931;-62
2022/09/19 05:37:46;;;;;;;;;;;11.30;99.90;;;;;;5085253;28;19925;-65
2022/09/19 05:40:43;;;;;;;;;;;11.30;99.90;;;;;;5067751;28;19931;-64
2022/09/19 05:43:20;;;;;;;;;;;11.30;99.90;;;;;;5102666;28;20295;-61
2022/09/19 05:45:50;;;;;;;;;;;11.40;99.90;;;;;;5104542;28;19935;-63
2022/09/19 05:48:18;;;;;;;;;;;11.30;99.90;;;;;;5093041;28;20533;-64
2022/09/19 05:50:46;;;;;;;;;;;11.40;99.90;;;;;;5063961;28;19932;-64
2022/09/19 05:56:11;;;;;;;;;;;11.40;99.90;;;;;;5106177;28;19924;-63
2022/09/19 05:58:46;;;;;;;;;;;11.40;99.90;;;;;;5089013;28;20571;-64
2022/09/19 06:01:13;;;;;;;;;;;11.50;99.90;;;;;;5086634;28;19932;-64
2022/09/19 06:03:42;;;;;;;;;;;11.50;99.90;;;;;;5063567;28;20379;-64
2022/09/19 06:06:18;;;;;;;;;;;11.50;99.90;;;;;;5070916;28;19925;-63
2022/09/19 06:08:53;;;;;;;;;;;11.50;99.90;;;;;;5082616;28;20551;-61
2022/09/19 06:11:21;;;;;;;;;;;11.60;99.90;;;;;;5092173;28;19932;-63
2022/09/19 06:16:37;;;;;;;;;;;11.60;99.90;;;;;;5111251;28;19923;-63
2022/09/19 06:19:24;;;;;;;;;;;11.60;99.90;;;;;;5091022;28;19946;-63
2022/09/19 06:21:58;;;;;;;;;;;11.70;99.90;;;;;;5090862;28;19924;-62
2022/09/19 06:24:26;;;;;;;;;;;11.70;99.90;;;;;;5088670;28;19931;-63
2022/09/19 06:26:53;;;;;;;;;;;11.70;99.90;;;;;;5112276;28;19931;-62
2022/09/19 06:29:22;;;;;;;;;;;11.80;99.90;;;;;;5093784;28;19930;-64
2022/09/19 06:32:11;;;;;;;;;;;11.80;99.90;;;;;;5112301;28;20295;-62
2022/09/19 06:34:43;;;;;;;;;;;11.80;99.90;;;;;;5079300;28;19938;-60
2022/09/19 06:37:28;;;;;;;;;;;11.80;99.90;;;;;;5077434;28;19931;-63
2022/09/19 06:39:56;;;;;;;;;;;11.90;99.90;;;;;;5089275;28;19931;-63
2022/09/19 06:42:24;;;;;;;;;;;11.90;99.90;;;;;;5113247;27;20409;-61
2022/09/19 06:45:14;;;;;;;;;;;11.90;99.90;;;;;;5132794;27;19938;-62
2022/09/19 06:48:00;;;;;;;;;;;12.00;99.90;;;;;;5088680;28;19923;-61
2022/09/19 06:50:43;;;;;;;;;;;12.00;99.90;;;;;;5091333;28;19931;-59
2022/09/19 06:53:11;;;;;;;;;;;12.10;99.90;;;;;;5095807;28;19924;-58
2022/09/19 06:55:39;;;;;;;;;;;12.10;99.90;;;;;;5110734;28;19924;-58
2022/09/19 06:58:17;;;;;;;;;;;12.10;99.90;;;;;;5104348;27;19927;-60
2022/09/19 07:00:46;;;;;;;;;;;12.20;99.90;;;;;;5113982;27;20293;-58
2022/09/19 07:03:17;;;;;;;;;;;12.30;99.90;;;;;;5106035;28;19932;-58
2022/09/19 07:05:51;;;;;;;;;;;12.30;99.90;;;;;;5069668;28;20559;-60
2022/09/19 07:08:26;;;;;;;;;;;12.40;99.90;;;;;;5067585;28;19924;-60
2022/09/19 07:10:56;;;;;;;;;;;12.40;99.90;;;;;;5093455;28;19939;-58
2022/09/19 07:13:24;;;;;;;;;;;12.50;99.90;;;;;;5076315;28;20401;-59
2022/09/19 07:16:02;;;;;;;;;;;12.50;99.90;;;;;;5110122;28;19935;-57
2022/09/19 07:18:31;;;;;;;;;;;12.60;99.90;;;;;;5105194;28;19924;-60
2022/09/19 07:21:06;;;;;;;;;;;12.60;99.90;;;;;;5086120;28;19961;-61
2022/09/19 07:23:44;;;;;;;;;;;12.60;99.90;;;;;;5078032;28;19928;-61
2022/09/19 07:26:24;;;;;;;;;;;12.70;99.90;;;;;;5108146;28;20387;-62
2022/09/19 07:28:52;;;;;;;;;;;12.70;99.90;;;;;;5092778;28;19923;-58
2022/09/19 07:31:23;;;;;;;;;;;12.80;99.90;;;;;;5075945;28;20195;-64
2022/09/19 07:33:52;;;;;;;;;;;12.80;99.90;;;;;;5094278;28;20559;-61
2022/09/19 07:36:26;;;;;;;;;;;12.90;99.90;;;;;;5072718;28;19924;-59
2022/09/19 07:38:58;;;;;;;;;;;13.00;99.90;;;;;;5082467;28;19928;-62
2022/09/19 07:41:32;;;;;;;;;;;13.00;99.90;;;;;;5094712;27;19930;-59
2022/09/19 07:44:26;;;;;;;;;;;13.00;99.90;;;;;;5083360;28;19924;-60
2022/09/19 07:47:28;;;;;;;;;;;13.10;99.90;;;;;;5090032;27;19924;-59
2022/09/19 07:50:07;;;;;;;;;;;13.10;99.90;;;;;;5082844;28;20916;-63
2022/09/19 07:52:36;;;;;;;;;;;13.20;99.90;;;;;;5092363;28;19924;-62
2022/09/19 07:55:07;;;;;;;;;;;13.30;99.90;;;;;;5097867;28;19931;-62
2022/09/19 07:57:34;;;;;;;;;;;13.30;99.90;;;;;;5092150;28;19924;-60
2022/09/19 08:00:03;;;;;;;;;;;13.40;99.90;;;;;;5092291;28;19931;-62
2022/09/19 08:02:36;;;;;;;;;;;13.40;99.90;;;;;;5086961;28;20276;-64
2022/09/19 08:05:04;;;;;;;;;;;13.40;99.90;;;;;;5077297;28;19947;-62
2022/09/19 08:07:33;;;;;;;;;;;13.50;99.90;;;;;;5105526;28;19931;-59
2022/09/19 08:10:02;;;;;;;;;;;13.50;99.90;;;;;;5067599;28;19932;-64
2022/09/19 08:12:31;;;;;;;;;;;13.50;99.90;;;;;;5086374;28;19924;-62
2022/09/19 08:15:05;;;;;;;;;;;13.60;99.90;;;;;;5128363;27;19946;-62
2022/09/19 08:17:36;;;;;;;;;;;13.60;99.90;;;;;;5084589;28;19930;-63
2022/09/19 08:20:04;;;;;;;;;;;13.70;99.90;;;;;;5083571;28;19939;-63
2022/09/19 08:22:34;;;;;;;;;;;13.70;99.90;;;;;;5085187;28;19924;-58
2022/09/19 08:25:07;;;;;;;;;;;13.70;99.90;;;;;;5082513;28;19924;-64
2022/09/19 08:27:37;;;;;;;;;;;13.70;99.90;;;;;;5105696;28;19931;-64
2022/09/19 08:30:06;;;;;;;;;;;13.70;99.90;;;;;;5090693;28;20294;-58
2022/09/19 08:32:34;;;;;;;;;;;13.70;99.90;;;;;;5089018;28;20296;-61
2022/09/19 08:35:04;;;;;;;;;;;13.80;99.90;;;;;;5091950;28;19931;-64
2022/09/19 08:37:32;;;;;;;;;;;13.80;99.90;;;;;;5098484;28;20291;-62
2022/09/19 08:40:18;;;;;;;;;;;13.90;99.90;;;;;;5085287;28;20290;-64
2022/09/19 08:42:57;;;;;;;;;;;13.90;99.90;;;;;;5092837;27;19931;-63
2022/09/19 08:45:31;;;;;;;;;;;14.00;99.90;;;;;;5083190;28;19924;-62
2022/09/19 08:48:01;;;;;;;;;;;14.00;99.90;;;;;;5089854;28;20275;-64
2022/09/19 08:50:32;;;;;;;;;;;14.00;99.90;;;;;;5072200;28;20111;-63
2022/09/19 08:53:06;;;;;;;;;;;14.00;99.90;;;;;;5073911;28;19924;-63
2022/09/19 08:55:35;;;;;;;;;;;14.00;99.90;;;;;;5082514;28;19935;-59
2022/09/19 08:58:16;;;;;;;;;;;14.10;99.90;;;;;;5090570;28;20294;-59
2022/09/19 09:01:09;;;;;;;;;;;14.20;99.90;;;;;;5081163;28;19935;-60
2022/09/19 09:04:12;;;;;;;;;;;14.30;99.90;;;;;;5098593;28;19928;-64
2022/09/19 09:07:02;;;;;;;;;;;14.40;99.90;;;;;;5084952;28;19928;-63
2022/09/19 09:09:30;;;;;;;;;;;14.50;99.90;;;;;;5072884;28;19932;-62
2022/09/19 09:12:22;;;;;;;;;;;14.50;99.90;;;;;;5082118;28;19935;-64
2022/09/19 09:14:58;;;;;;;;;;;14.60;99.90;;;;;;5077582;28;19946;-63
2022/09/19 09:17:47;;;;;;;;;;;14.60;99.90;;;;;;5084240;28;19928;-63
2022/09/19 09:20:37;;;;;;;;;;;14.70;99.90;;;;;;5074001;28;19947;-63
2022/09/19 09:23:15;;;;;;;;;;;14.70;99.90;;;;;;5080292;28;19924;-63
2022/09/19 09:26:00;;;;;;;;;;;14.70;99.90;;;;;;5084818;28;19924;-63
2022/09/19 09:28:40;;;;;;;;;;;14.80;99.90;;;;;;5095781;28;19932;-65
2022/09/19 09:31:37;;;;;;;;;;;14.90;99.90;;;;;;5064850;28;19992;-61
2022/09/19 09:34:30;;;;;;;;;;;15.10;99.90;;;;;;5093536;28;20306;-58
2022/09/19 09:37:03;;;;;;;;;;;15.20;99.90;;;;;;5067091;28;19928;-62
2022/09/19 09:39:49;;;;;;;;;;;15.10;99.90;;;;;;5102155;28;19923;-63
2022/09/19 09:42:21;;;;;;;;;;;15.10;99.90;;;;;;5095212;27;19934;-58
2022/09/19 09:44:57;;;;;;;;;;;15.10;99.90;;;;;;5111882;27;20429;-62
2022/09/19 09:47:43;;;;;;;;;;;15.10;99.90;;;;;;5102412;27;19930;-58
2022/09/19 09:50:23;;;;;;;;;;;15.20;99.90;;;;;;5073670;28;19928;-58
2022/09/19 09:52:59;;;;;;;;;;;15.20;99.90;;;;;;5091616;28;19927;-60
2022/09/19 09:58:49;;;;;;;;;;;15.40;99.90;;;;;;5091627;28;19927;-64
2022/09/19 10:04:20;;;;;;;;;;;15.50;99.90;;;;;;5102312;27;20410;-59
2022/09/19 10:07:13;;;;;;;;;;;15.60;99.90;;;;;;5076438;28;19931;-58
2022/09/19 10:09:51;;;;;;;;;;;15.60;99.90;;;;;;5082674;28;19935;-58
2022/09/19 10:12:21;;;;;;;;;;;15.60;99.90;;;;;;5107974;28;19934;-62
2022/09/19 10:15:13;;;;;;;;;;;15.60;99.90;;;;;;5102543;28;20296;-62
2022/09/19 10:17:53;;;;;;;;;;;15.60;99.90;;;;;;5088227;28;20311;-63
2022/09/19 10:20:29;;;;;;;;;;;15.50;99.90;;;;;;5085814;28;19931;-63
2022/09/19 10:22:59;;;;;;;;;;;15.50;99.90;;;;;;5075294;27;19943;-58
2022/09/19 10:25:30;;;;;;;;;;;15.50;99.90;;;;;;5104076;28;19928;-61
2022/09/19 10:28:02;;;;;;;;;;;15.40;99.90;;;;;;5090163;28;20567;-63
2022/09/19 10:30:50;;;;;;;;;;;15.40;99.90;;;;;;5090545;28;19931;-61
2022/09/19 10:33:25;;;;;;;;;;;15.50;99.90;;;;;;5094672;27;19923;-59
2022/09/19 10:36:02;;;;;;;;;;;15.60;99.90;;;;;;5096947;28;20311;-62
2022/09/19 10:38:37;;;;;;;;;;;15.70;99.90;;;;;;5099690;28;19931;-60
2022/09/19 10:41:05;;;;;;;;;;;15.80;99.90;;;;;;5090782;28;19946;-61
2022/09/19 10:43:44;;;;;;;;;;;15.90;99.90;;;;;;5086994;28;19951;-63
2022/09/19 10:46:39;;;;;;;;;;;16.10;99.90;;;;;;5070705;28;19925;-64
2022/09/19 10:49:44;;;;;;;;;;;16.10;99.90;;;;;;5105088;28;19932;-63
2022/09/19 10:52:21;;;;;;;;;;;16.30;99.90;;;;;;5088970;28;19930;-64
2022/09/19 10:55:21;;;;;;;;;;;16.40;99.90;;;;;;5088269;28;19924;-64
2022/09/19 10:57:50;;;;;;;;;;;16.60;99.90;;;;;;5078979;27;20297;-64
2022/09/19 11:00:24;;;;;;;;;;;16.70;99.90;;;;;;5088473;28;19994;-64
2022/09/19 11:03:00;;;;;;;;;;;16.70;99.90;;;;;;5089968;28;19931;-59
2022/09/19 11:05:30;;;;;;;;;;;16.80;99.90;;;;;;5115175;27;20298;-63
2022/09/19 11:08:00;;;;;;;;;;;16.80;99.90;;;;;;5076760;28;19950;-62
2022/09/19 11:10:39;;;;;;;;;;;16.70;99.90;;;;;;5089441;28;19924;-63
2022/09/19 11:13:22;;;;;;;;;;;16.70;99.90;;;;;;5122465;27;19931;-61
2022/09/19 11:15:55;;;;;;;;;;;16.60;99.90;;;;;;5073481;28;19927;-59
2022/09/19 11:18:32;;;;;;;;;;;16.50;99.90;;;;;;5089202;28;19931;-61
2022/09/19 11:21:23;;;;;;;;;;;16.40;99.90;;;;;;5082967;28;19931;-61
2022/09/19 11:23:52;;;;;;;;;;;16.40;99.90;;;;;;5091676;27;19935;-59
2022/09/19 11:26:26;;;;;;;;;;;16.50;99.90;;;;;;5110231;27;19923;-63
2022/09/19 11:28:59;;;;;;;;;;;16.50;99.90;;;;;;5094226;28;19931;-60
2022/09/19 11:31:47;;;;;;;;;;;16.50;99.90;;;;;;5089680;28;19935;-63
2022/09/19 11:34:46;;;;;;;;;;;16.50;99.90;;;;;;5100379;28;19928;-59
2022/09/19 11:37:22;;;;;;;;;;;16.60;99.90;;;;;;5077857;28;19924;-57
2022/09/19 11:39:50;;;;;;;;;;;16.60;99.90;;;;;;5077819;28;19930;-63
2022/09/19 11:42:23;;;;;;;;;;;16.60;99.90;;;;;;5088599;28;19931;-62
2022/09/19 11:44:52;;;;;;;;;;;16.70;99.90;;;;;;5100000;27;20394;-62
2022/09/19 11:47:23;;;;;;;;;;;16.80;99.90;;;;;;5081235;28;19928;-61
2022/09/19 11:50:05;;;;;;;;;;;16.80;99.90;;;;;;5080884;28;20002;-65
2022/09/19 11:52:54;;;;;;;;;;;16.90;99.90;;;;;;5065767;28;20398;-64
2022/09/19 11:55:47;;;;;;;;;;;17.00;99.90;;;;;;5080454;28;19927;-62
2022/09/19 11:58:51;;;;;;;;;;;17.10;99.90;;;;;;5079616;28;19928;-58
2022/09/19 12:01:23;;;;;;;;;;;17.10;99.90;;;;;;5021886;28;19929;-59
2022/09/19 12:04:10;;;;;;;;;;;17.40;99.90;;;;;;5086943;28;19957;-58
2022/09/19 12:06:50;;;;;;;;;;;17.60;99.90;;;;;;5079654;28;19927;-57
2022/09/19 12:09:25;;;;;;;;;;;17.60;99.90;;;;;;5104256;28;19924;-58
2022/09/19 12:12:11;;;;;;;;;;;17.70;99.90;;;;;;5092335;28;19930;-58
2022/09/19 12:15:16;;;;;;;;;;;17.60;99.90;;;;;;5105531;27;19928;-58
2022/09/19 12:17:51;;;;;;;;;;;17.50;99.90;;;;;;5087579;28;19934;-57
2022/09/19 12:20:27;;;;;;;;;;;17.40;99.90;;;;;;5089789;28;19935;-58
2022/09/19 12:25:59;;;;;;;;;;;17.30;99.90;;;;;;5088720;28;19924;-59
2022/09/19 12:28:33;;;;;;;;;;;17.20;99.90;;;;;;5086821;28;20330;-58
2022/09/19 12:31:04;;;;;;;;;;;17.10;99.90;;;;;;5087601;28;19924;-61
2022/09/19 12:33:46;;;;;;;;;;;17.00;99.90;;;;;;5093394;27;20118;-60
2022/09/19 12:36:32;;;;;;;;;;;16.90;99.90;;;;;;5105074;27;20000;-60
2022/09/19 12:39:10;;;;;;;;;;;16.90;99.90;;;;;;5083791;28;19923;-63
2022/09/19 12:41:44;;;;;;;;;;;16.90;99.90;;;;;;5110835;27;20136;-61
2022/09/19 12:44:16;;;;;;;;;;;16.90;99.90;;;;;;5095258;28;20402;-63
2022/09/19 12:47:04;;;;;;;;;;;16.90;99.90;;;;;;5088053;28;19928;-62
2022/09/19 12:50:13;;;;;;;;;;;17.00;99.90;;;;;;5072847;28;20411;-63
2022/09/19 12:52:44;;;;;;;;;;;17.00;99.90;;;;;;5099771;28;19923;-61
2022/09/19 12:55:18;;;;;;;;;;;17.00;99.90;;;;;;5103553;28;20315;-63
2022/09/19 12:57:49;;;;;;;;;;;16.90;99.90;;;;;;5088139;28;19932;-59
2022/09/19 13:00:18;;;;;;;;;;;16.80;99.90;;;;;;5099713;28;19934;-62
2022/09/19 13:02:50;;;;;;;;;;;16.80;99.90;;;;;;5092008;28;20386;-62
2022/09/19 13:05:23;;;;;;;;;;;16.70;99.90;;;;;;5072909;28;19927;-59
2022/09/19 13:07:59;;;;;;;;;;;16.50;99.90;;;;;;5096483;28;19929;-61
2022/09/19 13:10:39;;;;;;;;;;;16.50;99.90;;;;;;5095991;28;19924;-59
2022/09/19 13:13:13;;;;;;;;;;;16.30;99.90;;;;;;5096476;28;19928;-62
2022/09/19 13:15:45;;;;;;;;;;;16.20;99.90;;;;;;5092803;28;19928;-62
2022/09/19 13:23:51;;;;;;;;;;;15.90;99.90;;;;;;5092198;28;20014;-61
2022/09/19 13:26:24;;;;;;;;;;;15.80;99.90;;;;;;5095082;28;19927;-59
2022/09/19 13:28:56;;;;;;;;;;;15.80;99.90;;;;;;5102226;28;20434;-62
2022/09/19 13:31:55;;;;;;;;;;;15.70;99.90;;;;;;5101816;28;19924;-58
2022/09/19 13:34:39;;;;;;;;;;;15.60;99.90;;;;;;5069745;28;19923;-59
2022/09/19 13:37:25;;;;;;;;;;;15.60;99.90;;;;;;5067773;28;20294;-63
2022/09/19 13:40:06;;;;;;;;;;;15.50;99.90;;;;;;5096243;28;19928;-61
2022/09/19 13:42:38;;;;;;;;;;;15.50;99.90;;;;;;5077335;28;19931;-62
2022/09/19 13:45:17;;;;;;;;;;;15.40;99.90;;;;;;5097071;28;19928;-63
2022/09/19 13:47:47;;;;;;;;;;;15.40;99.90;;;;;;5092015;28;19987;-60
2022/09/19 13:50:32;;;;;;;;;;;15.40;99.90;;;;;;5086638;28;19927;-63
2022/09/19 13:53:05;;;;;;;;;;;15.50;99.90;;;;;;5079151;28;19924;-63
2022/09/19 13:55:33;;;;;;;;;;;15.50;99.90;;;;;;5076791;28;19931;-63
2022/09/19 13:58:14;;;;;;;;;;;15.60;99.90;;;;;;5105223;28;19935;-62
2022/09/19 14:00:43;;;;;;;;;;;15.80;99.90;;;;;;5101518;28;19946;-63
2022/09/19 14:03:37;;;;;;;;;;;16.00;99.90;;;;;;5104840;28;20327;-62
2022/09/19 14:06:17;;;;;;;;;;;16.20;99.90;;;;;;5101433;28;19924;-63
2022/09/19 14:08:45;;;;;;;;;;;16.40;99.90;;;;;;5060481;28;19935;-63
2022/09/19 14:11:32;;;;;;;;;;;16.70;99.90;;;;;;5092217;28;19945;-61
2022/09/19 14:13:59;;;;;;;;;;;16.80;99.90;;;;;;5125023;28;19930;-58
2022/09/19 14:16:30;;;;;;;;;;;16.90;99.90;;;;;;5126021;28;19923;-57
2022/09/19 14:18:58;;;;;;;;;;;17.00;99.90;;;;;;5108706;28;19924;-59
2022/09/19 14:21:26;;;;;;;;;;;17.10;99.90;;;;;;5104428;28;20260;-60
2022/09/19 14:23:58;;;;;;;;;;;17.10;99.90;;;;;;5099939;28;19923;-59
2022/09/19 14:26:35;;;;;;;;;;;17.10;99.90;;;;;;5102431;28;19924;-60
2022/09/19 14:29:04;;;;;;;;;;;17.10;99.90;;;;;;5102525;28;19931;-59
2022/09/19 14:31:51;;;;;;;;;;;17.10;99.90;;;;;;5109104;28;19938;-58
2022/09/19 14:34:32;;;;;;;;;;;17.20;99.90;;;;;;5100832;27;19923;-58
2022/09/19 14:37:00;;;;;;;;;;;17.10;99.90;;;;;;5105858;28;19928;-58
2022/09/19 14:39:33;;;;;;;;;;;17.20;99.90;;;;;;5090275;28;19924;-58
2022/09/19 14:42:18;;;;;;;;;;;17.30;99.90;;;;;;5115073;27;19930;-58
2022/09/19 14:44:52;;;;;;;;;;;17.40;99.90;;;;;;5110658;27;20782;-58
2022/09/19 14:47:34;;;;;;;;;;;17.50;99.90;;;;;;5103534;28;19931;-58
2022/09/19 14:50:07;;;;;;;;;;;17.50;99.90;;;;;;5107577;28;20375;-59
2022/09/19 14:52:36;;;;;;;;;;;17.60;99.90;;;;;;5106286;28;20400;-58
2022/09/19 14:55:12;;;;;;;;;;;17.60;99.90;;;;;;5091748;28;19927;-62
2022/09/19 14:57:50;;;;;;;;;;;17.60;99.90;;;;;;5083870;28;19930;-64
2022/09/19 15:00:20;;;;;;;;;;;17.70;99.90;;;;;;5088978;27;19932;-60
2022/09/19 15:02:50;;;;;;;;;;;17.70;99.90;;;;;;5078177;28;19928;-63
2022/09/19 15:05:22;;;;;;;;;;;17.80;99.90;;;;;;5075577;28;19939;-64
2022/09/19 15:07:50;;;;;;;;;;;17.80;99.90;;;;;;5105014;28;19924;-63
2022/09/19 15:10:33;;;;;;;;;;;17.90;99.90;;;;;;5105683;28;19924;-63
2022/09/19 15:13:20;;;;;;;;;;;17.80;99.90;;;;;;5095763;27;19928;-64
2022/09/19 15:15:54;;;;;;;;;;;17.70;99.90;;;;;;5086749;28;19927;-60
2022/09/19 15:18:24;;;;;;;;;;;17.50;99.90;;;;;;5089746;28;19928;-64
2022/09/19 15:20:53;;;;;;;;;;;17.30;99.90;;;;;;5087859;28;20393;-63
2022/09/19 15:23:21;;;;;;;;;;;17.20;99.90;;;;;;5109392;27;19931;-63
2022/09/19 15:25:54;;;;;;;;;;;17.00;99.90;;;;;;5104965;27;19939;-63
2022/09/19 15:28:21;;;;;;;;;;;16.80;99.90;;;;;;5104444;28;19932;-64